メインページ
METAR-TAF:

METAR-TAF

空港 :

Castlegar, ブリティッシュコロンビア州, カナダ

緯度: 49-18N, 経度: 117-38W, 海抜: 495m

現時点の気象観測

当レポートは44分前の20:00(UTC)に作成
の風 6kt
気温 2°C
湿度 64%
気圧 1021 hPa
視程: 24.1km
高度2100ftの雲はほとんどない
高度4000ftの雲はほとんどない

METAR: CYCG 212000Z 01006KT 15SM FEW021 FEW040 02/M04 A3014 RMK SC1SC1 SC TR SC TR SLP227

時間: 12:44 (20:44 UTC)

予報

当レポートは2時間6分前の18:38(UTC)に作成
予報は21日の 19時(UTC)から 22日の 01時(UTC)まで有効
北/北西の風 5kt
視程: 10km
高度500ftの雲はほとんどない
高度5000ftの雲は散在している

TAF: CYCG 211838Z 2119/2201 34005KT P6SM FEW005 SCT050 RMK NXT FCST WILL BE ISSUED AT 221545Z

4,000以上の空港の気象観測と天気予報(METAR報とTAF報)

利用可能な観測所は地図上に黄色い丸と赤い丸で示す。

丸の上にカーソルを重ねると観測所名を参照できる。

次にクリックすると気象観測と天気予報を参照できる。

マップの切り替え:黒色「×」印の緑ボタンをクリックして拡大、「-」印の緑ボタンをクリックして縮小、緑色の三角印をクリックして隣りの地図に切り替え


METAR-TAF: